Time;durP1;ratioP1;P1;durP2;ratioP2;P2;SDS_P1;SDS_P2;PMS_P1;PMS_P2;Temp;Humidity;BMP_temperature;BMP_pressure;BME280_temperature;BME280_humidity;BME280_pressure;Samples;Min_cycle;Max_cycle;Signal;HPM_P1;HPM_P2
2022/07/09 00:01:26;;;;;;;12.55;7.47;;;16.70;99.90;;;;;;5053765;28;20036;-71
2022/07/09 00:03:52;;;;;;;13.63;8.55;;;16.70;99.90;;;;;;5051056;28;20041;-71
2022/07/09 00:06:19;;;;;;;11.43;8.07;;;16.70;99.90;;;;;;5038919;28;20033;-71
2022/07/09 00:08:44;;;;;;;11.52;7.78;;;16.70;99.90;;;;;;5053001;28;20051;-71
2022/07/09 00:11:10;;;;;;;12.70;8.07;;;16.70;99.90;;;;;;5052289;28;20040;-71
2022/07/09 00:13:35;;;;;;;13.60;8.23;;;16.70;99.90;;;;;;5050782;28;20036;-71
2022/07/09 00:16:01;;;;;;;13.88;8.23;;;16.70;99.90;;;;;;5054237;28;20032;-71
2022/07/09 00:18:26;;;;;;;14.25;8.50;;;16.70;99.90;;;;;;5052876;28;20041;-71
2022/07/09 00:20:55;;;;;;;11.43;7.70;;;16.60;99.90;;;;;;5030245;28;20070;-71
2022/07/09 00:23:20;;;;;;;10.00;7.28;;;16.60;99.90;;;;;;5040400;28;20052;-71
2022/07/09 00:25:46;;;;;;;12.10;8.23;;;16.50;99.90;;;;;;5055110;28;20036;-71
2022/07/09 00:28:11;;;;;;;13.32;7.25;;;16.50;99.90;;;;;;5053707;28;20185;-71
2022/07/09 00:30:37;;;;;;;11.02;6.57;;;16.50;99.90;;;;;;5053025;28;20041;-71
2022/07/09 00:33:03;;;;;;;11.02;7.80;;;16.50;99.90;;;;;;5055007;28;20048;-71
2022/07/09 00:35:28;;;;;;;14.90;7.78;;;16.50;99.90;;;;;;5054971;28;20033;-71
2022/07/09 00:37:54;;;;;;;10.00;7.05;;;16.50;99.90;;;;;;5046294;28;20106;-70
2022/07/09 00:40:20;;;;;;;13.57;7.30;;;16.50;99.90;;;;;;5043597;28;20084;-71
2022/07/09 00:42:45;;;;;;;9.27;7.00;;;16.50;99.90;;;;;;5048434;28;20383;-71
2022/07/09 00:45:11;;;;;;;13.55;7.60;;;16.50;99.90;;;;;;5053948;28;20070;-71
2022/07/09 00:47:36;;;;;;;9.63;6.93;;;16.50;99.90;;;;;;5054355;28;20035;-71
2022/07/09 00:50:03;;;;;;;12.05;7.95;;;16.50;99.90;;;;;;5053769;28;20462;-71
2022/07/09 00:52:30;;;;;;;10.93;6.70;;;16.50;99.90;;;;;;5055721;28;20064;-72
2022/07/09 00:54:57;;;;;;;10.88;6.57;;;16.50;99.90;;;;;;5051334;28;20037;-71
2022/07/09 00:57:23;;;;;;;11.55;6.80;;;16.40;99.90;;;;;;5047025;28;20478;-71
2022/07/09 00:59:49;;;;;;;12.52;7.20;;;16.40;99.90;;;;;;5055139;28;20046;-70
2022/07/09 01:02:15;;;;;;;12.27;7.07;;;16.40;99.90;;;;;;5051146;28;20037;-70
2022/07/09 01:04:40;;;;;;;11.20;7.13;;;16.40;99.90;;;;;;5052711;28;20076;-70
2022/07/09 01:07:06;;;;;;;10.35;6.28;;;16.50;99.90;;;;;;5038970;28;20064;-70
2022/07/09 01:09:32;;;;;;;12.63;6.25;;;16.50;99.90;;;;;;5055518;28;20367;-70
2022/07/09 01:11:58;;;;;;;10.38;6.60;;;16.50;99.90;;;;;;5046072;28;20033;-70
2022/07/09 01:14:23;;;;;;;13.80;7.43;;;16.50;99.90;;;;;;5055259;28;20053;-71
2022/07/09 01:17:00;;;;;;;11.50;6.85;;;16.50;99.90;;;;;;5055393;28;20087;-71
2022/07/09 01:19:31;;;;;;;12.15;7.70;;;16.50;99.90;;;;;;5070964;28;20045;-71
2022/07/09 01:21:57;;;;;;;10.68;6.57;;;16.50;99.90;;;;;;5035447;28;20033;-71
2022/07/09 01:24:23;;;;;;;14.55;7.32;;;16.50;99.90;;;;;;5035501;28;20041;-71
2022/07/09 01:26:49;;;;;;;12.63;8.05;;;16.50;99.90;;;;;;5034580;28;20068;-72
2022/07/09 01:29:15;;;;;;;12.07;6.75;;;16.50;99.90;;;;;;5045850;28;20050;-71
2022/07/09 01:31:41;;;;;;;16.90;7.30;;;16.60;99.90;;;;;;5073191;28;20032;-71
2022/07/09 01:34:06;;;;;;;12.43;6.47;;;16.50;99.90;;;;;;5052788;28;20041;-71
2022/07/09 01:36:33;;;;;;;9.18;6.32;;;16.50;99.90;;;;;;5054801;28;20475;-71
2022/07/09 01:38:59;;;;;;;10.00;7.10;;;16.50;99.90;;;;;;5055261;28;20037;-70
2022/07/09 01:41:25;;;;;;;9.70;6.63;;;16.50;99.90;;;;;;5051568;28;20063;-71
2022/07/09 01:43:50;;;;;;;12.45;7.18;;;16.50;99.90;;;;;;5034882;28;20047;-71
2022/07/09 01:46:16;;;;;;;11.05;6.97;;;16.50;99.90;;;;;;5044824;28;20032;-72
2022/07/09 01:48:42;;;;;;;12.63;6.80;;;16.50;99.90;;;;;;5051335;28;20031;-71
2022/07/09 01:51:11;;;;;;;13.27;7.57;;;16.50;99.90;;;;;;5053505;28;20098;-71
2022/07/09 01:53:37;;;;;;;11.10;7.25;;;16.50;99.90;;;;;;5040425;28;20529;-70
2022/07/09 01:56:07;;;;;;;11.45;7.75;;;16.50;99.90;;;;;;5034926;28;20044;-71
2022/07/09 01:58:33;;;;;;;10.07;6.85;;;16.60;99.90;;;;;;5034604;28;20147;-71
2022/07/09 02:00:59;;;;;;;14.85;7.38;;;16.50;99.90;;;;;;5034828;28;20044;-71
2022/07/09 02:03:24;;;;;;;11.43;8.48;;;16.50;99.90;;;;;;5047745;28;20390;-71
2022/07/09 02:05:50;;;;;;;10.70;6.47;;;16.60;99.90;;;;;;5042405;28;20043;-72
2022/07/09 02:08:15;;;;;;;11.48;7.95;;;16.60;99.90;;;;;;5042658;22;20049;-68
2022/07/09 02:10:41;;;;;;;12.40;7.65;;;16.60;99.90;;;;;;5034625;28;20084;-68
2022/07/09 02:13:07;;;;;;;14.65;8.07;;;16.60;99.90;;;;;;5047582;28;20178;-68
2022/07/09 02:15:32;;;;;;;10.70;7.32;;;16.50;99.90;;;;;;5048706;28;20406;-68
2022/07/09 02:17:58;;;;;;;13.77;8.07;;;16.50;99.90;;;;;;5050049;28;20041;-68
2022/07/09 02:20:24;;;;;;;12.52;7.90;;;16.50;99.90;;;;;;5041714;28;20037;-68
2022/07/09 02:22:50;;;;;;;14.90;8.52;;;16.50;99.90;;;;;;5044944;28;20033;-68
2022/07/09 02:25:16;;;;;;;12.65;8.57;;;16.50;99.90;;;;;;5047330;28;20183;-68
2022/07/09 02:27:42;;;;;;;14.23;8.77;;;16.50;99.90;;;;;;5032558;28;20037;-68
2022/07/09 02:30:08;;;;;;;18.25;8.82;;;16.50;99.90;;;;;;5042927;28;20546;-68
2022/07/09 02:32:33;;;;;;;13.70;8.20;;;16.40;99.90;;;;;;5049279;28;20049;-68
2022/07/09 02:34:59;;;;;;;13.60;8.43;;;16.40;99.90;;;;;;5043795;28;20545;-68
2022/07/09 02:37:24;;;;;;;12.35;8.18;;;16.40;99.90;;;;;;5027218;28;20044;-68
2022/07/09 02:39:50;;;;;;;12.45;8.35;;;16.40;99.90;;;;;;5048954;28;20056;-68
2022/07/09 02:42:16;;;;;;;13.77;9.35;;;16.40;99.90;;;;;;5039271;28;20037;-68
2022/07/09 02:44:43;;;;;;;13.20;8.85;;;16.40;99.90;;;;;;5027909;28;20049;-68
2022/07/09 02:47:09;;;;;;;15.48;9.32;;;16.40;99.90;;;;;;5049666;28;20115;-68
2022/07/09 02:49:34;;;;;;;13.50;9.18;;;16.30;99.90;;;;;;5046701;28;20120;-68
2022/07/09 02:52:01;;;;;;;12.20;8.95;;;16.40;99.90;;;;;;5046955;28;20036;-68
2022/07/09 02:54:27;;;;;;;15.18;9.13;;;16.40;99.90;;;;;;5047323;28;20434;-68
2022/07/09 02:56:53;;;;;;;15.07;8.98;;;16.40;99.90;;;;;;5042650;28;20049;-68
2022/07/09 02:59:19;;;;;;;13.85;9.30;;;16.40;99.90;;;;;;5041330;28;20045;-68
2022/07/09 03:01:45;;;;;;;11.55;8.85;;;16.40;99.90;;;;;;5043135;28;20568;-68
2022/07/09 03:04:10;;;;;;;15.70;9.05;;;16.40;99.90;;;;;;5042369;28;20077;-68
2022/07/09 03:06:36;;;;;;;14.20;9.43;;;16.40;99.90;;;;;;5043638;28;20079;-68
2022/07/09 03:09:02;;;;;;;14.15;9.05;;;16.40;99.90;;;;;;5053439;28;20048;-68
2022/07/09 03:11:28;;;;;;;16.17;9.88;;;16.40;99.90;;;;;;5051448;28;20082;-68
2022/07/09 03:13:54;;;;;;;15.27;9.80;;;16.40;99.90;;;;;;5047939;28;20048;-69
2022/07/09 03:16:20;;;;;;;16.27;9.90;;;16.40;99.90;;;;;;5047849;28;20040;-68
2022/07/09 03:18:45;;;;;;;15.13;9.48;;;16.30;99.90;;;;;;5051657;28;20043;-68
2022/07/09 03:21:11;;;;;;;15.63;9.75;;;16.30;99.90;;;;;;5050348;28;20441;-68
2022/07/09 03:23:38;;;;;;;13.68;9.57;;;16.20;99.90;;;;;;5052631;28;20170;-68
2022/07/09 03:26:06;;;;;;;12.25;8.55;;;16.10;99.90;;;;;;5051472;28;20127;-68
2022/07/09 03:28:33;;;;;;;15.82;10.05;;;16.10;99.90;;;;;;5051757;28;20120;-68
2022/07/09 03:30:59;;;;;;;12.15;9.45;;;16.10;99.90;;;;;;5066374;28;20032;-68
2022/07/09 03:33:26;;;;;;;12.40;9.15;;;16.10;99.90;;;;;;5048385;28;20033;-68
2022/07/09 03:35:54;;;;;;;12.30;9.63;;;16.00;99.90;;;;;;5033752;28;20060;-68
2022/07/09 03:38:19;;;;;;;11.73;9.27;;;16.00;99.90;;;;;;5048203;28;20040;-68
2022/07/09 03:40:45;;;;;;;14.30;9.55;;;16.00;99.90;;;;;;5050776;28;20047;-68
2022/07/09 03:43:10;;;;;;;15.30;9.75;;;16.00;99.90;;;;;;5052230;28;20090;-68
2022/07/09 03:45:36;;;;;;;13.27;8.40;;;16.00;99.90;;;;;;5069450;28;20569;-68
2022/07/09 03:48:02;;;;;;;13.25;8.20;;;15.90;99.90;;;;;;5050470;28;20036;-68
2022/07/09 03:50:27;;;;;;;11.65;8.73;;;16.00;99.90;;;;;;5043093;28;20529;-68
2022/07/09 03:52:53;;;;;;;11.00;8.10;;;16.00;99.90;;;;;;5049917;28;20060;-68
2022/07/09 03:55:19;;;;;;;13.07;8.75;;;15.90;99.90;;;;;;5051879;28;20893;-68
2022/07/09 03:57:45;;;;;;;12.65;7.43;;;15.90;99.90;;;;;;5050882;28;20720;-68
2022/07/09 04:00:11;;;;;;;13.63;8.48;;;16.00;99.90;;;;;;5036230;28;20040;-68
2022/07/09 04:02:36;;;;;;;13.27;8.10;;;16.00;99.90;;;;;;5050945;28;20044;-68
2022/07/09 04:05:02;;;;;;;11.05;7.93;;;16.10;99.90;;;;;;5066538;28;20036;-68
2022/07/09 04:07:27;;;;;;;9.80;7.55;;;16.10;99.90;;;;;;5043658;28;20124;-68
2022/07/09 04:09:53;;;;;;;13.05;7.93;;;16.10;99.90;;;;;;5044941;28;20151;-68
2022/07/09 04:12:20;;;;;;;11.93;8.25;;;16.10;99.90;;;;;;5047061;28;20047;-68
2022/07/09 04:14:45;;;;;;;12.32;7.57;;;16.10;99.90;;;;;;5047468;28;20504;-68
2022/07/09 04:17:11;;;;;;;15.30;8.63;;;16.10;99.90;;;;;;5045939;28;20029;-68
2022/07/09 04:19:37;;;;;;;16.95;7.68;;;16.10;99.90;;;;;;5049336;28;20123;-68
2022/07/09 04:22:02;;;;;;;15.27;8.40;;;16.20;99.90;;;;;;5055527;28;20037;-68
2022/07/09 04:24:28;;;;;;;12.50;7.80;;;16.20;99.90;;;;;;5032641;28;20067;-68
2022/07/09 04:26:54;;;;;;;12.90;7.05;;;16.20;99.90;;;;;;5048422;28;20036;-68
2022/07/09 04:29:20;;;;;;;10.50;7.05;;;16.30;99.90;;;;;;5048229;28;20025;-68
2022/07/09 04:31:45;;;;;;;12.65;7.05;;;16.30;99.90;;;;;;5048207;28;20662;-68
2022/07/09 04:34:11;;;;;;;8.70;6.25;;;16.30;99.90;;;;;;5048418;28;20045;-68
2022/07/09 04:36:36;;;;;;;10.65;7.38;;;16.40;99.90;;;;;;5046064;28;20132;-68
2022/07/09 04:39:03;;;;;;;9.20;6.72;;;16.40;99.90;;;;;;5046577;28;20048;-68
2022/07/09 04:41:28;;;;;;;12.35;7.25;;;16.40;99.90;;;;;;5028459;28;20041;-68
2022/07/09 04:43:54;;;;;;;13.32;6.35;;;16.50;99.90;;;;;;5051303;28;20791;-68
2022/07/09 04:46:21;;;;;;;10.35;6.78;;;16.50;99.90;;;;;;5049940;28;20448;-68
2022/07/09 04:48:48;;;;;;;14.82;7.05;;;16.60;99.90;;;;;;5051012;28;20047;-68
2022/07/09 04:51:13;;;;;;;9.45;6.20;;;16.60;99.90;;;;;;5050040;28;20028;-68
2022/07/09 04:53:39;;;;;;;7.88;5.68;;;16.70;99.90;;;;;;5049806;28;20045;-68
2022/07/09 04:56:06;;;;;;;11.70;6.63;;;16.70;99.90;;;;;;5043886;28;20037;-68
2022/07/09 04:58:32;;;;;;;10.73;6.30;;;16.70;99.90;;;;;;5038254;28;20045;-68
2022/07/09 05:00:58;;;;;;;9.57;6.03;;;16.80;99.90;;;;;;5036421;28;20072;-68
2022/07/09 05:03:24;;;;;;;10.30;6.32;;;16.80;99.90;;;;;;5033209;28;20044;-68
2022/07/09 05:05:50;;;;;;;11.27;6.32;;;16.90;99.90;;;;;;5036767;28;20080;-68
2022/07/09 05:08:16;;;;;;;10.73;6.38;;;16.90;99.90;;;;;;5050230;28;20041;-68
2022/07/09 05:10:42;;;;;;;8.55;5.22;;;16.90;99.90;;;;;;5048432;28;20450;-68
2022/07/09 05:13:08;;;;;;;9.68;6.88;;;16.90;99.90;;;;;;5049748;28;20037;-71
2022/07/09 05:15:33;;;;;;;9.20;6.32;;;17.00;99.90;;;;;;5044097;28;20501;-68
2022/07/09 05:17:59;;;;;;;7.20;6.07;;;17.00;99.90;;;;;;5044024;28;20048;-68
2022/07/09 05:20:26;;;;;;;9.02;6.00;;;17.00;99.90;;;;;;5046905;28;20052;-68
2022/07/09 05:22:51;;;;;;;11.55;6.47;;;17.10;99.90;;;;;;5049333;28;20116;-68
2022/07/09 05:25:17;;;;;;;9.07;5.78;;;17.20;99.90;;;;;;5050144;28;20198;-68
2022/07/09 05:27:46;;;;;;;8.70;6.03;;;17.20;99.90;;;;;;5033278;28;20040;-68
2022/07/09 05:30:14;;;;;;;10.10;6.38;;;17.40;99.90;;;;;;5041246;28;20037;-68
2022/07/09 05:32:41;;;;;;;8.95;6.45;;;17.50;99.90;;;;;;5047738;28;20060;-68
2022/07/09 05:35:06;;;;;;;8.90;5.97;;;17.70;99.90;;;;;;5040201;28;20542;-67
2022/07/09 05:37:32;;;;;;;8.60;5.53;;;17.80;99.90;;;;;;5049018;28;20135;-67
2022/07/09 05:39:58;;;;;;;9.02;6.47;;;17.90;99.90;;;;;;5048764;28;20045;-67
2022/07/09 05:42:24;;;;;;;9.68;6.53;;;17.90;99.90;;;;;;5042473;28;20025;-68
2022/07/09 05:44:50;;;;;;;7.45;5.47;;;18.00;99.90;;;;;;5034814;28;20424;-68
2022/07/09 05:47:15;;;;;;;6.40;5.75;;;18.00;99.90;;;;;;5051234;28;20037;-68
2022/07/09 05:49:41;;;;;;;11.02;6.53;;;18.00;99.90;;;;;;5047147;28;20508;-68
2022/07/09 05:52:07;;;;;;;8.93;6.25;;;18.00;99.90;;;;;;5045010;28;20033;-68
2022/07/09 05:54:32;;;;;;;11.38;6.10;;;18.00;99.90;;;;;;5036858;28;20042;-68
2022/07/09 05:56:58;;;;;;;8.23;5.60;;;18.10;99.90;;;;;;5033622;28;20045;-68
2022/07/09 05:59:24;;;;;;;10.50;6.38;;;18.10;99.90;;;;;;5047450;28;20038;-67
2022/07/09 06:01:49;;;;;;;8.10;5.57;;;18.00;99.90;;;;;;5040606;28;20041;-67
2022/07/09 06:04:15;;;;;;;7.95;5.97;;;18.00;99.90;;;;;;5024706;28;20042;-67
2022/07/09 06:06:40;;;;;;;8.05;5.28;;;18.00;99.90;;;;;;5027682;28;20521;-67
2022/07/09 06:09:06;;;;;;;7.18;5.65;;;18.00;99.90;;;;;;5050232;28;20087;-67
2022/07/09 06:11:32;;;;;;;7.95;4.90;;;18.00;99.90;;;;;;5032275;28;20028;-68
2022/07/09 06:13:58;;;;;;;7.85;5.05;;;18.10;99.90;;;;;;5035199;28;20045;-68
2022/07/09 06:16:23;;;;;;;8.40;5.32;;;18.20;99.90;;;;;;5050827;28;20033;-67
2022/07/09 06:18:49;;;;;;;10.32;4.93;;;18.30;99.90;;;;;;5047403;28;20486;-67
2022/07/09 06:21:14;;;;;;;5.40;4.85;;;18.30;99.90;;;;;;5035347;28;20124;-67
2022/07/09 06:23:40;;;;;;;7.30;4.90;;;18.30;99.90;;;;;;5045225;28;20048;-67
2022/07/09 06:26:05;;;;;;;6.10;4.80;;;18.30;99.90;;;;;;5054128;28;20039;-67
2022/07/09 06:28:31;;;;;;;6.35;4.68;;;18.30;99.90;;;;;;5040808;28;20051;-67
2022/07/09 06:30:57;;;;;;;6.93;4.88;;;18.30;99.90;;;;;;5053449;28;20448;-68
2022/07/09 06:33:22;;;;;;;6.05;4.53;;;18.30;99.90;;;;;;5052132;28;20044;-67
2022/07/09 06:35:48;;;;;;;8.85;4.50;;;18.30;99.90;;;;;;5045387;28;20044;-68
2022/07/09 06:38:14;;;;;;;7.53;4.50;;;18.40;99.90;;;;;;5048127;28;20060;-67
2022/07/09 06:40:39;;;;;;;7.60;3.97;;;18.40;99.90;;;;;;5043507;28;20516;-67
2022/07/09 06:43:05;;;;;;;8.25;4.35;;;18.50;99.90;;;;;;5053935;28;20047;-67
2022/07/09 06:45:30;;;;;;;6.25;3.95;;;18.60;99.90;;;;;;5052301;28;20039;-67
2022/07/09 06:47:56;;;;;;;7.25;4.32;;;18.60;99.90;;;;;;5035537;28;20647;-67
2022/07/09 06:50:21;;;;;;;5.30;4.00;;;18.70;99.90;;;;;;5033695;28;20048;-67
2022/07/09 06:52:47;;;;;;;8.00;5.03;;;18.80;99.90;;;;;;5046545;28;20041;-67
2022/07/09 06:55:12;;;;;;;8.02;4.57;;;18.90;99.90;;;;;;5048115;28;20380;-67
2022/07/09 06:57:38;;;;;;;7.90;4.25;;;18.90;99.90;;;;;;5042828;28;20062;-67
2022/07/09 07:00:06;;;;;;;6.25;4.13;;;19.00;99.90;;;;;;5063373;28;20041;-68
2022/07/09 07:02:31;;;;;;;6.38;4.10;;;19.00;99.90;;;;;;5064684;28;20052;-68
2022/07/09 07:04:57;;;;;;;5.95;4.05;;;19.00;99.90;;;;;;5047579;28;20037;-67
2022/07/09 07:07:23;;;;;;;5.25;4.18;;;18.90;99.90;;;;;;5016788;28;20616;-68
2022/07/09 07:09:49;;;;;;;7.03;3.75;;;18.80;99.90;;;;;;5056292;28;20045;-68
2022/07/09 07:12:14;;;;;;;4.43;3.38;;;18.80;99.90;;;;;;5023874;28;20387;-68
2022/07/09 07:14:40;;;;;;;7.95;3.78;;;18.90;99.90;;;;;;5036127;28;20045;-68
2022/07/09 07:17:06;;;;;;;9.50;3.25;;;19.00;99.90;;;;;;5051638;28;20040;-68
2022/07/09 07:19:31;;;;;;;5.00;3.10;;;19.00;99.90;;;;;;5033244;28;20453;-68
2022/07/09 07:21:57;;;;;;;6.18;3.15;;;19.00;99.90;;;;;;5036367;28;20037;-68
2022/07/09 07:24:23;;;;;;;4.97;3.50;;;19.00;99.90;;;;;;5043904;28;20080;-68
2022/07/09 07:26:48;;;;;;;4.78;3.10;;;19.00;99.90;;;;;;5053093;28;20028;-68
2022/07/09 07:29:14;;;;;;;7.18;3.58;;;19.00;99.90;;;;;;5032573;28;20044;-68
2022/07/09 07:31:39;;;;;;;4.70;2.50;;;19.00;99.90;;;;;;5050044;28;20068;-68
2022/07/09 07:34:05;;;;;;;7.00;2.80;;;19.00;99.90;;;;;;5052739;28;20044;-68
2022/07/09 07:36:31;;;;;;;7.10;2.80;;;19.00;99.90;;;;;;5036288;28;20048;-68
2022/07/09 07:38:56;;;;;;;5.88;2.70;;;19.10;99.90;;;;;;5051519;28;20037;-68
2022/07/09 07:41:22;;;;;;;5.43;2.40;;;19.20;99.90;;;;;;5045698;28;20174;-68
2022/07/09 07:43:48;;;;;;;7.18;2.60;;;19.50;99.90;;;;;;5051002;28;20072;-68
2022/07/09 07:46:14;;;;;;;4.65;2.67;;;19.60;99.90;;;;;;5034751;28;20211;-68
2022/07/09 07:48:42;;;;;;;6.75;2.42;;;19.90;99.90;;;;;;5051998;28;20040;-68
2022/07/09 07:51:09;;;;;;;5.55;2.58;;;20.20;99.90;;;;;;5052915;28;20379;-68
2022/07/09 07:53:35;;;;;;;4.07;2.50;;;20.40;99.90;;;;;;5053011;28;20598;-68
2022/07/09 07:56:02;;;;;;;5.28;2.28;;;20.60;99.90;;;;;;5050399;28;20114;-68
2022/07/09 07:58:27;;;;;;;4.45;2.50;;;20.70;99.90;;;;;;5048522;28;20052;-68
2022/07/09 08:00:53;;;;;;;6.00;2.67;;;20.20;99.90;;;;;;5041157;28;20078;-68
2022/07/09 08:03:19;;;;;;;3.05;2.22;;;20.40;99.90;;;;;;5051128;28;20037;-68
2022/07/09 08:05:44;;;;;;;6.95;2.20;;;20.40;99.90;;;;;;5052704;28;20040;-68
2022/07/09 08:08:10;;;;;;;3.92;2.13;;;20.60;99.90;;;;;;5036291;28;20053;-70
2022/07/09 08:10:35;;;;;;;4.90;2.25;;;20.80;99.90;;;;;;5051724;28;20218;-70
2022/07/09 08:13:01;;;;;;;6.38;2.10;;;20.90;99.90;;;;;;5051534;28;20150;-70
2022/07/09 08:15:27;;;;;;;6.57;2.13;;;21.10;99.90;;;;;;5050946;28;20131;-70
2022/07/09 08:17:53;;;;;;;4.78;1.85;;;21.40;99.90;;;;;;5051174;28;20044;-70
2022/07/09 08:20:19;;;;;;;3.78;1.83;;;21.50;99.90;;;;;;5037171;28;20505;-70
2022/07/09 08:22:45;;;;;;;4.18;1.73;;;21.90;99.90;;;;;;5044675;28;20131;-70
2022/07/09 08:25:11;;;;;;;3.35;1.70;;;22.20;99.90;;;;;;5074485;28;20166;-70
2022/07/09 08:27:36;;;;;;;3.50;1.60;;;22.30;99.90;;;;;;5074589;28;20119;-70
2022/07/09 08:30:03;;;;;;;2.80;1.45;;;22.10;99.90;;;;;;5055320;28;20044;-70
2022/07/09 08:32:29;;;;;;;2.45;1.40;;;22.30;99.90;;;;;;5070623;28;20052;-70
2022/07/09 08:34:54;;;;;;;3.35;1.45;;;22.40;99.90;;;;;;5055338;28;20040;-70
2022/07/09 08:37:20;;;;;;;2.92;1.75;;;22.40;99.90;;;;;;5038533;28;20378;-70
2022/07/09 08:39:45;;;;;;;5.60;1.88;;;21.40;99.90;;;;;;5049214;28;20064;-70
2022/07/09 08:42:11;;;;;;;3.33;1.45;;;21.50;99.90;;;;;;5052614;28;20040;-70
2022/07/09 08:44:39;;;;;;;2.47;1.90;;;21.30;99.90;;;;;;5059358;28;20394;-70
2022/07/09 08:47:05;;;;;;;2.55;1.90;;;21.10;99.90;;;;;;5049736;28;20072;-69
2022/07/09 08:49:31;;;;;;;3.42;1.67;;;20.70;99.90;;;;;;5053382;28;20048;-70
2022/07/09 08:51:57;;;;;;;5.63;2.20;;;20.70;99.90;;;;;;5029513;28;20458;-70
2022/07/09 08:54:23;;;;;;;4.53;1.95;;;20.70;99.90;;;;;;5043288;28;20068;-70
2022/07/09 08:56:52;;;;;;;2.90;1.25;;;21.20;99.90;;;;;;5029568;28;20068;-70
2022/07/09 08:59:18;;;;;;;4.57;1.90;;;21.60;99.90;;;;;;5029957;28;20093;-70
2022/07/09 09:01:44;;;;;;;3.67;1.27;;;21.60;99.90;;;;;;5047170;28;20052;-71
2022/07/09 09:04:09;;;;;;;2.33;1.27;;;22.00;99.90;;;;;;5048950;28;20051;-71
2022/07/09 09:06:42;;;;;;;5.03;1.40;;;21.80;99.90;;;;;;5047302;28;20043;-71
2022/07/09 09:09:08;;;;;;;3.50;1.38;;;21.80;99.90;;;;;;5036744;28;20084;-71
2022/07/09 09:11:36;;;;;;;2.63;1.33;;;21.80;99.90;;;;;;5063643;28;20051;-71
2022/07/09 09:14:02;;;;;;;2.88;1.17;;;21.90;99.90;;;;;;5053252;28;20040;-71
2022/07/09 09:16:29;;;;;;;3.22;1.40;;;22.10;99.90;;;;;;5038887;28;20036;-71
2022/07/09 09:18:56;;;;;;;3.92;1.60;;;22.10;99.90;;;;;;5047194;28;20036;-70
2022/07/09 09:21:26;;;;;;;5.22;1.60;;;22.30;99.90;;;;;;5037530;28;20041;-70
2022/07/09 09:23:58;;;;;;;2.97;1.52;;;22.20;99.90;;;;;;5045274;28;20060;-71
2022/07/09 09:26:27;;;;;;;5.00;1.70;;;22.40;99.90;;;;;;5037901;28;20067;-70
2022/07/09 09:28:59;;;;;;;3.10;1.30;;;22.80;99.90;;;;;;5055182;28;20048;-70
2022/07/09 09:31:35;;;;;;;3.72;1.30;;;23.00;99.90;;;;;;5037353;28;20514;-70
2022/07/09 09:34:13;;;;;;;4.80;1.27;;;23.30;99.00;;;;;;5048627;28;20193;-71
2022/07/09 09:36:51;;;;;;;7.40;1.55;;;23.30;99.50;;;;;;5039967;28;20064;-70
2022/07/09 09:39:25;;;;;;;4.10;1.50;;;23.10;99.20;;;;;;5047404;28;20079;-70
2022/07/09 09:41:56;;;;;;;1.98;1.00;;;22.80;98.40;;;;;;5041714;28;20095;-70
2022/07/09 09:44:24;;;;;;;4.33;1.43;;;22.60;99.10;;;;;;5053519;28;20405;-70
2022/07/09 09:46:50;;;;;;;3.60;1.20;;;22.60;99.70;;;;;;5051460;28;20037;-71
2022/07/09 09:49:16;;;;;;;3.42;1.10;;;22.50;99.80;;;;;;5034937;28;20028;-71
2022/07/09 09:51:55;;;;;;;4.53;1.45;;;22.80;99.80;;;;;;5050672;28;20062;-70
2022/07/09 09:54:22;;;;;;;4.97;1.70;;;22.70;99.00;;;;;;5041570;28;20101;-71
2022/07/09 09:56:49;;;;;;;4.00;1.33;;;22.70;99.50;;;;;;5051339;28;20040;-71
2022/07/09 09:59:15;;;;;;;7.35;1.35;;;22.70;99.00;;;;;;5053864;28;20483;-70
2022/07/09 10:01:42;;;;;;;4.72;1.50;;;22.70;98.80;;;;;;5037704;28;20078;-71
2022/07/09 10:04:09;;;;;;;6.03;1.73;;;22.80;99.10;;;;;;5054064;28;20079;-71
2022/07/09 10:06:36;;;;;;;5.32;1.45;;;22.60;99.20;;;;;;5050620;28;20048;-71
2022/07/09 10:09:04;;;;;;;4.55;1.38;;;22.80;98.10;;;;;;5046330;28;20040;-71
2022/07/09 10:11:43;;;;;;;4.70;1.38;;;22.40;98.60;;;;;;5052135;28;20471;-70
2022/07/09 10:14:18;;;;;;;2.92;1.00;;;22.50;98.30;;;;;;5034416;28;20104;-71
2022/07/09 10:16:43;;;;;;;5.90;1.25;;;22.70;98.30;;;;;;5034306;28;20083;-71
2022/07/09 10:19:09;;;;;;;5.50;1.40;;;22.90;98.40;;;;;;5033314;28;20056;-71
2022/07/09 10:21:36;;;;;;;5.30;1.52;;;23.00;98.40;;;;;;5028819;28;20051;-71
2022/07/09 10:24:07;;;;;;;5.95;1.30;;;23.00;98.10;;;;;;5054016;28;20051;-71
2022/07/09 10:26:42;;;;;;;4.90;1.33;;;23.00;97.50;;;;;;5034749;28;20076;-70
2022/07/09 10:29:28;;;;;;;3.30;0.95;;;22.70;97.20;;;;;;5043766;28;20043;-71
2022/07/09 10:31:54;;;;;;;7.10;1.23;;;22.50;98.00;;;;;;5053970;28;20037;-71
2022/07/09 10:34:51;;;;;;;3.90;1.23;;;22.70;98.40;;;;;;5032270;28;20036;-71
2022/07/09 10:37:17;;;;;;;3.08;1.35;;;22.80;98.00;;;;;;5033898;28;20049;-70
2022/07/09 10:39:53;;;;;;;1.90;1.13;;;22.80;97.70;;;;;;5047676;28;20046;-71
2022/07/09 10:42:21;;;;;;;3.88;1.48;;;23.10;97.70;;;;;;5043706;28;20041;-70
2022/07/09 10:44:49;;;;;;;4.45;1.70;;;23.10;97.50;;;;;;5033752;28;20036;-71
2022/07/09 10:47:15;;;;;;;4.40;1.35;;;23.40;97.60;;;;;;5033640;28;20731;-70
2022/07/09 10:49:41;;;;;;;3.75;1.23;;;23.60;96.90;;;;;;5033854;28;20072;-70
2022/07/09 10:52:07;;;;;;;4.18;1.58;;;23.60;96.70;;;;;;5049903;28;20033;-70
2022/07/09 10:54:34;;;;;;;5.82;1.55;;;23.30;96.60;;;;;;5053472;28;20051;-71
2022/07/09 10:57:00;;;;;;;4.60;1.70;;;23.30;96.90;;;;;;5070464;28;20044;-70
2022/07/09 10:59:26;;;;;;;4.60;1.70;;;22.90;98.00;;;;;;5024782;28;20508;-70
2022/07/09 11:01:52;;;;;;;4.70;1.90;;;22.60;99.10;;;;;;5033748;28;20043;-71
2022/07/09 11:04:29;;;;;;;5.75;1.90;;;22.50;99.60;;;;;;5033344;28;20132;-71
2022/07/09 11:06:55;;;;;;;4.05;1.30;;;22.40;99.70;;;;;;5033272;28;20037;-70
2022/07/09 11:09:22;;;;;;;5.10;1.40;;;22.30;99.70;;;;;;5050801;28;20072;-71
2022/07/09 11:11:47;;;;;;;5.60;1.75;;;22.60;99.30;;;;;;5035699;28;20064;-70
2022/07/09 11:14:13;;;;;;;7.28;1.90;;;22.50;99.80;;;;;;5039567;28;20084;-71
2022/07/09 11:16:39;;;;;;;5.22;1.42;;;22.80;99.60;;;;;;5033821;28;20049;-71
2022/07/09 11:19:19;;;;;;;6.43;1.40;;;22.90;99.20;;;;;;5033250;28;20047;-71
2022/07/09 11:21:45;;;;;;;6.03;1.60;;;23.00;98.00;;;;;;5016892;28;20045;-70
2022/07/09 11:24:14;;;;;;;4.65;1.45;;;23.20;97.70;;;;;;5032881;28;20056;-71
2022/07/09 11:26:40;;;;;;;5.72;1.58;;;22.80;98.20;;;;;;5019285;28;20494;-71
2022/07/09 11:29:09;;;;;;;4.10;1.52;;;22.80;98.20;;;;;;5053003;28;20044;-71
2022/07/09 11:31:36;;;;;;;6.55;1.92;;;22.80;98.10;;;;;;5053127;28;20451;-71
2022/07/09 11:34:11;;;;;;;4.85;1.63;;;22.90;98.30;;;;;;5026556;28;20052;-71
2022/07/09 11:36:38;;;;;;;7.63;2.22;;;23.00;98.10;;;;;;5053041;28;20118;-71
2022/07/09 11:39:03;;;;;;;9.55;1.73;;;22.70;98.00;;;;;;5036413;28;20039;-71
2022/07/09 11:41:42;;;;;;;5.50;1.40;;;22.70;97.10;;;;;;5036473;28;20123;-72
2022/07/09 11:44:08;;;;;;;4.68;1.50;;;22.50;98.00;;;;;;5050528;28;20370;-71
2022/07/09 11:46:35;;;;;;;2.75;1.02;;;22.90;98.20;;;;;;5055089;28;20076;-72
2022/07/09 11:49:00;;;;;;;6.82;1.40;;;22.90;97.90;;;;;;5071074;28;20033;-71
2022/07/09 11:51:33;;;;;;;4.70;1.20;;;23.00;97.70;;;;;;5052503;28;20039;-71
2022/07/09 11:54:02;;;;;;;4.13;1.05;;;23.10;94.90;;;;;;5035989;28;20053;-71
2022/07/09 11:56:45;;;;;;;4.40;1.17;;;22.80;93.80;;;;;;5037020;28;20037;-71
2022/07/09 11:59:24;;;;;;;2.92;1.10;;;23.20;95.60;;;;;;5033929;28;20048;-71
2022/07/09 12:01:50;;;;;;;3.13;1.23;;;23.40;94.10;;;;;;5055786;28;20381;-71
2022/07/09 12:04:20;;;;;;;4.43;1.30;;;23.50;94.00;;;;;;5039879;28;20045;-71
2022/07/09 12:06:52;;;;;;;4.18;1.15;;;23.60;94.40;;;;;;5051411;28;20052;-71
2022/07/09 12:09:29;;;;;;;4.18;1.40;;;23.50;94.70;;;;;;5035783;28;20073;-71
2022/07/09 12:11:55;;;;;;;3.28;1.20;;;23.20;95.00;;;;;;5042450;28;20028;-71
2022/07/09 12:14:20;;;;;;;8.15;1.33;;;22.90;91.70;;;;;;5056310;28;20056;-71
2022/07/09 12:16:46;;;;;;;1.70;0.60;;;22.90;92.90;;;;;;5056064;28;20409;-71
2022/07/09 12:19:11;;;;;;;3.88;1.00;;;22.90;93.00;;;;;;5037597;28;20135;-71
2022/07/09 12:21:37;;;;;;;4.47;1.10;;;23.00;93.20;;;;;;5045840;28;20051;-71
2022/07/09 12:24:02;;;;;;;4.53;1.38;;;22.90;93.50;;;;;;5036825;28;20512;-71
2022/07/09 12:26:30;;;;;;;3.65;0.85;;;22.90;93.20;;;;;;5036513;28;20431;-71
2022/07/09 12:28:56;;;;;;;3.20;1.15;;;23.00;92.80;;;;;;5044173;28;20047;-70
2022/07/09 12:31:22;;;;;;;4.30;1.10;;;22.70;93.00;;;;;;5074196;28;20440;-71
2022/07/09 12:33:48;;;;;;;3.08;1.17;;;22.50;94.40;;;;;;5074246;28;20052;-71
2022/07/09 12:36:16;;;;;;;2.70;0.90;;;22.80;93.10;;;;;;5057300;28;20071;-71
2022/07/09 12:38:42;;;;;;;2.20;0.95;;;22.80;92.50;;;;;;5049536;28;20055;-71
2022/07/09 12:41:07;;;;;;;3.65;0.90;;;22.70;92.40;;;;;;5048301;28;20398;-71